createdAt,value
2017-06-09T00:00:52.925Z,18.30
2017-06-09T00:03:20.495Z,18.30
2017-06-09T00:05:48.758Z,18.30
2017-06-09T00:08:16.323Z,18.20
2017-06-09T00:10:43.883Z,18.20
2017-06-09T00:13:11.362Z,18.20
2017-06-09T00:15:38.893Z,18.20
2017-06-09T00:18:06.354Z,18.10
2017-06-09T00:20:33.911Z,18.10
2017-06-09T00:23:01.461Z,18.10
2017-06-09T00:25:28.935Z,18.10
2017-06-09T00:27:57.203Z,18.10
2017-06-09T00:30:24.680Z,18.00
2017-06-09T00:32:52.920Z,18.00
2017-06-09T00:35:20.492Z,18.00
2017-06-09T00:37:48.724Z,17.90
2017-06-09T00:40:16.218Z,17.90
2017-06-09T00:42:43.783Z,17.90
2017-06-09T00:45:12.015Z,17.80
2017-06-09T00:47:39.509Z,17.80
2017-06-09T00:50:07.170Z,17.80
2017-06-09T00:52:34.731Z,17.80
2017-06-09T00:55:02.197Z,17.80
2017-06-09T00:57:30.469Z,17.80
2017-06-09T00:59:58.733Z,17.80
2017-06-09T01:02:26.299Z,17.70
2017-06-09T01:04:53.771Z,17.70
2017-06-09T01:07:22.027Z,17.70
2017-06-09T01:09:49.499Z,17.70
2017-06-09T01:12:17.767Z,17.60
2017-06-09T01:14:46.029Z,17.50
2017-06-09T01:17:13.523Z,17.50
2017-06-09T01:19:40.984Z,17.50
2017-06-09T01:22:08.455Z,17.50
2017-06-09T01:24:35.958Z,17.50
2017-06-09T01:27:03.439Z,17.50
2017-06-09T01:29:31.693Z,17.40
2017-06-09T01:31:59.187Z,17.40
2017-06-09T01:34:26.658Z,17.40
2017-06-09T01:36:54.114Z,17.30
2017-06-09T01:39:21.621Z,17.30
2017-06-09T01:41:49.188Z,17.30
2017-06-09T01:44:17.430Z,17.30
2017-06-09T01:46:44.901Z,17.20
2017-06-09T01:49:12.364Z,17.30
2017-06-09T01:51:39.851Z,17.20
2017-06-09T01:54:08.085Z,17.20
2017-06-09T01:56:35.671Z,17.10
2017-06-09T01:59:03.933Z,17.20
2017-06-09T02:01:31.489Z,17.10
2017-06-09T02:03:59.059Z,17.20
2017-06-09T02:06:27.335Z,17.10
2017-06-09T02:08:55.805Z,17.10
2017-06-09T02:11:23.369Z,17.10
2017-06-09T02:13:50.839Z,17.10
2017-06-09T02:16:19.107Z,17.00
2017-06-09T02:18:47.348Z,17.00
2017-06-09T02:21:14.831Z,16.90
2017-06-09T02:23:42.303Z,16.90
2017-06-09T02:26:10.579Z,16.80
2017-06-09T02:28:38.810Z,16.70
2017-06-09T02:31:06.307Z,16.70
2017-06-09T02:33:34.579Z,16.80
2017-06-09T02:36:02.851Z,16.80
2017-06-09T02:38:31.090Z,16.70
2017-06-09T02:40:58.579Z,16.70
2017-06-09T02:43:26.144Z,16.70
2017-06-09T02:45:54.406Z,16.70
2017-06-09T02:48:21.879Z,16.60
2017-06-09T02:50:50.148Z,16.60
2017-06-09T02:53:17.715Z,16.60
2017-06-09T02:55:45.991Z,16.60
2017-06-09T02:58:14.258Z,16.60
2017-06-09T03:00:42.531Z,16.60
2017-06-09T03:03:09.998Z,16.60
2017-06-09T03:05:38.226Z,16.70
2017-06-09T03:08:05.698Z,16.60
2017-06-09T03:10:33.170Z,16.70
2017-06-09T03:13:00.641Z,16.70
2017-06-09T03:15:28.908Z,16.70
2017-06-09T03:17:57.147Z,16.70
2017-06-09T03:20:24.646Z,16.60
2017-06-09T03:22:52.890Z,16.60
2017-06-09T03:25:20.379Z,16.50
2017-06-09T03:27:48.647Z,16.50
2017-06-09T03:30:16.109Z,16.40
2017-06-09T03:32:50.140Z,16.60
2017-06-09T03:35:17.602Z,16.50
2017-06-09T03:37:45.130Z,16.60
2017-06-09T03:40:13.399Z,16.70
2017-06-09T03:42:40.875Z,16.60
2017-06-09T03:45:09.132Z,16.70
2017-06-09T03:47:36.603Z,16.70
2017-06-09T03:50:04.872Z,16.70
2017-06-09T03:52:33.135Z,16.80
2017-06-09T03:55:00.689Z,16.70
2017-06-09T03:57:28.253Z,16.80
2017-06-09T03:59:55.819Z,16.80
2017-06-09T04:02:23.285Z,16.80
2017-06-09T04:04:51.530Z,16.70
2017-06-09T04:07:18.997Z,16.70
2017-06-09T04:09:46.478Z,16.80
2017-06-09T04:12:14.738Z,16.80
2017-06-09T04:14:42.998Z,16.90
2017-06-09T04:17:10.464Z,16.80
2017-06-09T04:19:37.940Z,16.80
2017-06-09T04:22:06.207Z,16.90
2017-06-09T04:24:34.574Z,16.90
2017-06-09T04:27:02.135Z,16.80
2017-06-09T04:29:29.612Z,16.90
2017-06-09T04:31:57.919Z,17.10
2017-06-09T04:34:25.427Z,17.00
2017-06-09T04:36:52.903Z,17.10
2017-06-09T04:39:21.166Z,17.30
2017-06-09T04:41:49.438Z,17.30
2017-06-09T04:44:17.713Z,17.40
2017-06-09T04:46:45.990Z,17.50
2017-06-09T04:49:14.226Z,17.60
2017-06-09T04:51:41.702Z,17.50
2017-06-09T04:54:09.182Z,17.60
2017-06-09T04:56:37.459Z,17.70
2017-06-09T04:59:05.686Z,17.80
2017-06-09T05:01:33.195Z,17.80
2017-06-09T05:04:01.421Z,17.90
2017-06-09T05:06:28.896Z,17.90
2017-06-09T05:08:56.375Z,18.00
2017-06-09T05:11:24.619Z,18.10
2017-06-09T05:13:52.090Z,18.00
2017-06-09T05:16:19.554Z,18.10
2017-06-09T05:18:47.026Z,18.20
2017-06-09T05:21:15.255Z,18.20
2017-06-09T05:23:48.568Z,18.20
2017-06-09T05:26:16.027Z,18.30
2017-06-09T05:28:43.495Z,18.40
2017-06-09T05:31:10.957Z,18.40
2017-06-09T05:33:39.236Z,18.40
2017-06-09T05:36:07.458Z,18.50
2017-06-09T05:38:35.776Z,18.60
2017-06-09T05:41:03.251Z,18.50
2017-06-09T05:43:30.713Z,18.60
2017-06-09T05:45:58.967Z,18.60
2017-06-09T05:48:26.527Z,18.50
2017-06-09T05:50:53.990Z,18.60
2017-06-09T05:53:22.227Z,18.70
2017-06-09T05:55:49.685Z,18.60
2017-06-09T05:58:17.147Z,18.70
2017-06-09T06:00:44.609Z,18.80
2017-06-09T06:03:12.077Z,18.80
2017-06-09T06:05:39.558Z,18.90
2017-06-09T06:08:07.820Z,19.00
2017-06-09T06:10:35.371Z,19.00
2017-06-09T06:13:02.834Z,19.10
2017-06-09T06:15:31.106Z,19.40
2017-06-09T06:17:58.663Z,19.30
2017-06-09T06:20:26.221Z,19.50
2017-06-09T06:22:53.783Z,19.70
2017-06-09T06:25:21.334Z,19.80
2017-06-09T06:27:48.794Z,20.00
2017-06-09T06:30:16.359Z,20.10
2017-06-09T06:32:43.921Z,20.20
2017-06-09T06:35:12.146Z,20.10
2017-06-09T06:37:39.619Z,20.10
2017-06-09T06:40:07.107Z,20.20
2017-06-09T06:42:34.653Z,20.30
2017-06-09T06:45:02.227Z,20.40
2017-06-09T06:47:30.453Z,20.50
2017-06-09T06:49:57.942Z,20.50
2017-06-09T06:52:25.418Z,20.60
2017-06-09T06:54:53.647Z,20.70
2017-06-09T06:57:21.108Z,20.70
2017-06-09T06:59:48.585Z,20.80
2017-06-09T07:02:16.162Z,20.80
2017-06-09T07:04:44.425Z,21.00
2017-06-09T07:07:11.885Z,20.90
2017-06-09T07:09:39.466Z,21.00
2017-06-09T07:12:07.722Z,21.00
2017-06-09T07:14:35.306Z,20.90
2017-06-09T07:17:02.785Z,21.10
2017-06-09T07:19:30.301Z,21.10
2017-06-09T07:21:58.558Z,21.10
2017-06-09T07:24:26.132Z,21.00
2017-06-09T07:26:53.594Z,21.10
2017-06-09T07:29:21.909Z,21.10
2017-06-09T07:31:49.375Z,21.00
2017-06-09T07:34:16.847Z,21.10
2017-06-09T07:36:44.336Z,21.20
2017-06-09T07:39:11.886Z,21.30
2017-06-09T07:41:39.367Z,21.30
2017-06-09T07:44:06.821Z,21.30
2017-06-09T07:46:35.090Z,21.40
2017-06-09T07:49:03.317Z,21.50
2017-06-09T07:51:30.787Z,21.40
2017-06-09T07:53:58.256Z,21.60
2017-06-09T07:56:25.722Z,21.60
2017-06-09T07:58:53.194Z,21.70
2017-06-09T08:01:21.425Z,21.80
2017-06-09T08:03:48.891Z,21.70
2017-06-09T08:06:16.373Z,21.90
2017-06-09T08:08:43.831Z,21.90
2017-06-09T08:11:12.054Z,22.10
2017-06-09T08:13:39.527Z,22.00
2017-06-09T08:16:07.005Z,22.10
2017-06-09T08:18:34.584Z,22.20
2017-06-09T08:21:02.824Z,22.40
2017-06-09T08:23:30.298Z,22.30
2017-06-09T08:25:57.859Z,22.40
2017-06-09T08:28:25.327Z,22.50
2017-06-09T08:30:53.571Z,22.50
2017-06-09T08:33:21.049Z,22.40
2017-06-09T08:35:48.603Z,22.50
2017-06-09T08:38:16.068Z,22.50
2017-06-09T08:40:43.613Z,22.50
2017-06-09T08:43:11.105Z,22.60
2017-06-09T08:45:38.570Z,22.70
2017-06-09T08:48:06.083Z,22.80
2017-06-09T08:50:33.701Z,22.90
2017-06-09T08:53:01.202Z,23.00
2017-06-09T08:55:28.775Z,23.10
2017-06-09T08:57:57.049Z,23.30
2017-06-09T09:00:24.601Z,23.20
2017-06-09T09:02:52.058Z,23.40
2017-06-09T09:05:19.615Z,23.60
2017-06-09T09:07:47.178Z,23.80
2017-06-09T09:10:14.646Z,23.90
2017-06-09T09:12:42.911Z,24.30
2017-06-09T09:15:10.467Z,24.30
2017-06-09T09:17:38.026Z,24.50
2017-06-09T09:20:05.583Z,24.90
2017-06-09T09:22:33.137Z,25.40
2017-06-09T09:25:00.606Z,26.10
2017-06-09T09:27:28.162Z,26.90
2017-06-09T09:29:55.718Z,27.50
2017-06-09T09:32:23.275Z,28.10
2017-06-09T09:34:50.739Z,28.60
2017-06-09T09:37:19.011Z,28.90
2017-06-09T09:39:46.570Z,28.90
2017-06-09T09:42:14.813Z,29.00
2017-06-09T09:44:42.270Z,29.00
2017-06-09T09:47:09.747Z,28.80
2017-06-09T09:49:37.209Z,28.80
2017-06-09T09:52:04.679Z,28.70
2017-06-09T09:54:32.150Z,28.40
2017-06-09T09:56:59.677Z,28.20
2017-06-09T09:59:27.246Z,28.20
2017-06-09T10:01:55.476Z,28.10
2017-06-09T10:04:22.966Z,28.00
2017-06-09T10:06:50.531Z,28.00
2017-06-09T10:09:20.902Z,28.10
2017-06-09T10:11:48.463Z,28.20
2017-06-09T10:14:15.962Z,28.10
2017-06-09T10:16:43.421Z,28.10
2017-06-09T10:19:10.974Z,28.30
2017-06-09T10:21:38.453Z,28.50
2017-06-09T10:24:06.694Z,28.60
2017-06-09T10:26:34.156Z,28.60
2017-06-09T10:29:01.622Z,28.70
2017-06-09T10:31:29.189Z,28.60
2017-06-09T10:33:56.766Z,28.50
2017-06-09T10:36:25.022Z,28.70
2017-06-09T10:38:52.635Z,28.70
2017-06-09T10:41:20.103Z,29.60
2017-06-09T10:43:47.594Z,30.80
2017-06-09T10:46:15.075Z,31.40
2017-06-09T10:48:43.316Z,31.80
2017-06-09T10:51:10.781Z,31.80
2017-06-09T10:53:38.241Z,32.00
2017-06-09T10:56:05.725Z,31.80
2017-06-09T10:58:33.271Z,31.80
2017-06-09T11:01:01.526Z,31.10
2017-06-09T11:03:29.102Z,31.10
2017-06-09T11:05:57.367Z,30.50
2017-06-09T11:08:24.933Z,30.40
2017-06-09T11:10:52.489Z,30.30
2017-06-09T11:13:20.988Z,30.40
2017-06-09T11:15:49.245Z,30.70
2017-06-09T11:18:17.478Z,31.00
2017-06-09T11:20:44.975Z,30.90
2017-06-09T11:23:12.568Z,31.30
2017-06-09T11:25:40.081Z,31.50
2017-06-09T11:28:07.546Z,31.70
2017-06-09T11:30:35.153Z,31.70
2017-06-09T11:33:02.616Z,31.70
2017-06-09T11:35:30.109Z,31.80
2017-06-09T11:37:57.578Z,31.70
2017-06-09T11:40:25.126Z,31.70
2017-06-09T11:42:52.685Z,31.90
2017-06-09T11:45:20.253Z,32.30
2017-06-09T11:47:47.720Z,32.50
2017-06-09T11:50:15.981Z,32.30
2017-06-09T11:52:43.455Z,32.20
2017-06-09T11:55:11.719Z,32.30
2017-06-09T11:57:39.964Z,32.60
2017-06-09T12:00:07.442Z,32.60
2017-06-09T12:02:34.997Z,33.00
2017-06-09T12:05:02.474Z,33.40
2017-06-09T12:07:30.749Z,33.60
2017-06-09T12:09:58.984Z,34.00
2017-06-09T12:12:26.456Z,34.00
2017-06-09T12:14:53.917Z,34.50
2017-06-09T12:17:21.390Z,34.90
2017-06-09T12:19:49.626Z,35.90
2017-06-09T12:22:17.113Z,35.80
2017-06-09T12:24:45.353Z,37.50
2017-06-09T12:27:12.842Z,37.40
2017-06-09T12:29:40.408Z,38.80
2017-06-09T12:32:08.673Z,40.90
2017-06-09T12:39:23.333Z,38.70
2017-06-09T12:41:50.790Z,36.00
2017-06-09T12:44:18.264Z,34.50
2017-06-09T12:46:45.728Z,33.90
2017-06-09T12:49:13.310Z,33.50
2017-06-09T12:51:41.671Z,33.00
2017-06-09T12:54:09.239Z,32.90
2017-06-09T12:56:37.473Z,32.80
2017-06-09T12:59:04.967Z,32.70
2017-06-09T13:01:32.523Z,32.60
2017-06-09T13:04:00.078Z,32.40
2017-06-09T13:06:27.537Z,32.40
2017-06-09T13:08:55.010Z,32.40
2017-06-09T13:11:23.271Z,32.70
2017-06-09T13:13:50.729Z,32.70
2017-06-09T13:16:18.975Z,32.40
2017-06-09T13:18:46.438Z,32.30
2017-06-09T13:21:13.920Z,32.30
2017-06-09T13:23:42.191Z,32.20
2017-06-09T13:26:09.747Z,32.10
2017-06-09T13:28:37.306Z,32.10
2017-06-09T13:31:04.782Z,32.30
2017-06-09T13:33:33.038Z,32.50
2017-06-09T13:36:00.598Z,32.50
2017-06-09T13:38:28.064Z,32.30
2017-06-09T13:40:56.331Z,32.20
2017-06-09T13:43:23.896Z,32.20
2017-06-09T13:45:52.165Z,32.10
2017-06-09T13:48:20.410Z,32.00
2017-06-09T13:50:47.889Z,32.00
2017-06-09T13:53:15.451Z,31.90
2017-06-09T13:55:43.013Z,31.80
2017-06-09T13:58:10.482Z,31.50
2017-06-09T14:00:38.754Z,31.10
2017-06-09T14:03:07.022Z,31.00
2017-06-09T14:05:34.575Z,30.90
2017-06-09T14:08:02.141Z,31.10
2017-06-09T14:10:29.690Z,31.20
2017-06-09T14:12:57.255Z,31.40
2017-06-09T14:15:24.969Z,31.60
2017-06-09T14:17:52.441Z,31.90
2017-06-09T14:20:19.926Z,31.90
2017-06-09T14:22:48.009Z,31.80
2017-06-09T14:25:16.236Z,31.70
2017-06-09T14:27:43.731Z,31.70
2017-06-09T14:30:11.288Z,31.80
2017-06-09T14:32:38.854Z,32.20
2017-06-09T14:35:06.327Z,32.40
2017-06-09T14:37:34.553Z,32.40
2017-06-09T14:40:02.025Z,32.40
2017-06-09T14:42:29.597Z,32.50
2017-06-09T14:44:57.068Z,32.50
2017-06-09T14:47:25.299Z,32.60
2017-06-09T14:49:52.794Z,32.60
2017-06-09T14:52:21.036Z,32.50
2017-06-09T14:54:48.500Z,32.50
2017-06-09T14:57:15.986Z,32.40
2017-06-09T14:59:44.246Z,32.10
2017-06-09T15:02:11.709Z,32.00
2017-06-09T15:04:40.050Z,31.90
2017-06-09T15:07:07.514Z,31.90
2017-06-09T15:09:35.004Z,31.90
2017-06-09T15:12:03.246Z,31.60
2017-06-09T15:14:31.087Z,31.60
2017-06-09T15:16:58.597Z,31.70
2017-06-09T15:19:26.070Z,31.50
2017-06-09T15:21:54.335Z,31.40
2017-06-09T15:24:22.619Z,31.30
2017-06-09T15:26:50.898Z,31.40
2017-06-09T15:29:19.151Z,31.60
2017-06-09T15:31:46.705Z,31.60
2017-06-09T15:34:14.179Z,31.60
2017-06-09T15:36:42.443Z,31.30
2017-06-09T15:39:09.913Z,31.20
2017-06-09T15:41:38.177Z,31.10
2017-06-09T15:44:06.416Z,30.90
2017-06-09T15:46:33.877Z,30.90
2017-06-09T15:49:01.371Z,30.90
2017-06-09T15:51:29.594Z,30.60
2017-06-09T15:53:57.098Z,30.50
2017-06-09T15:56:25.361Z,30.30
2017-06-09T15:58:52.919Z,30.20
2017-06-09T16:01:20.481Z,30.10
2017-06-09T16:03:48.060Z,30.00
2017-06-09T16:06:16.322Z,30.00
2017-06-09T16:08:43.781Z,29.90
2017-06-09T16:11:11.342Z,29.90
2017-06-09T16:13:39.566Z,29.60
2017-06-09T16:16:07.043Z,29.60
2017-06-09T16:18:34.507Z,29.60
2017-06-09T16:21:01.973Z,29.60
2017-06-09T16:23:29.440Z,29.50
2017-06-09T16:25:56.999Z,29.40
2017-06-09T16:28:24.553Z,29.30
2017-06-09T16:30:52.017Z,29.30
2017-06-09T16:33:20.255Z,29.10
2017-06-09T16:35:47.743Z,29.10
2017-06-09T16:38:15.299Z,29.00
2017-06-09T16:40:42.860Z,29.00
2017-06-09T16:43:10.415Z,28.90
2017-06-09T16:45:37.982Z,28.90
2017-06-09T16:48:06.254Z,28.80
2017-06-09T16:50:33.801Z,28.80
2017-06-09T16:53:01.366Z,28.70
2017-06-09T16:55:28.931Z,28.70
2017-06-09T16:57:56.402Z,28.60
2017-06-09T17:00:24.659Z,28.40
2017-06-09T17:02:52.230Z,28.40
2017-06-09T17:05:20.470Z,28.00
2017-06-09T17:07:47.941Z,27.90
2017-06-09T17:10:15.415Z,27.70
2017-06-09T17:12:43.685Z,27.10
2017-06-09T17:15:11.169Z,27.00
2017-06-09T17:17:38.693Z,27.00
2017-06-09T17:20:06.256Z,26.90
2017-06-09T17:22:33.823Z,26.80
2017-06-09T17:25:02.079Z,26.40
2017-06-09T17:27:29.551Z,26.40
2017-06-09T17:29:57.802Z,25.00
2017-06-09T17:32:25.347Z,24.90
2017-06-09T17:34:52.844Z,24.40
2017-06-09T17:37:21.118Z,23.80
2017-06-09T17:39:48.674Z,23.70
2017-06-09T17:42:16.914Z,23.40
2017-06-09T17:44:44.378Z,23.30
2017-06-09T17:47:11.840Z,23.00
2017-06-09T17:49:39.361Z,22.70
2017-06-09T17:52:06.838Z,22.50
2017-06-09T17:54:34.298Z,22.30
2017-06-09T17:57:01.811Z,22.00
2017-06-09T17:59:30.070Z,21.70
2017-06-09T18:01:58.159Z,21.60
2017-06-09T18:04:25.630Z,21.50
2017-06-09T18:06:53.107Z,21.30
2017-06-09T18:09:20.570Z,21.20
2017-06-09T18:11:48.054Z,21.10
2017-06-09T18:14:15.609Z,21.00
2017-06-09T18:16:43.169Z,20.90
2017-06-09T18:19:10.732Z,20.80
2017-06-09T18:21:38.305Z,20.90
2017-06-09T18:24:06.570Z,20.90
2017-06-09T18:26:34.038Z,20.80
2017-06-09T18:29:02.275Z,20.90
2017-06-09T18:31:29.743Z,20.80
2017-06-09T18:33:57.217Z,20.80
2017-06-09T18:36:24.683Z,20.70
2017-06-09T18:38:52.927Z,20.40
2017-06-09T18:41:20.384Z,20.30
2017-06-09T18:43:47.962Z,20.30
2017-06-09T18:46:16.255Z,20.40
2017-06-09T18:48:44.493Z,20.40
2017-06-09T18:51:11.958Z,20.30
2017-06-09T18:53:39.418Z,20.40
2017-06-09T18:56:06.878Z,20.30
2017-06-09T18:58:34.344Z,20.30
2017-06-09T19:01:02.569Z,20.20
2017-06-09T19:03:30.119Z,20.10
2017-06-09T19:05:57.621Z,20.10
2017-06-09T19:08:25.078Z,20.10
2017-06-09T19:10:52.549Z,20.10
2017-06-09T19:13:20.781Z,20.00
2017-06-09T19:15:48.241Z,19.90
2017-06-09T19:18:15.715Z,20.00
2017-06-09T19:20:43.281Z,19.80
2017-06-09T19:23:10.734Z,19.70
2017-06-09T19:25:38.214Z,19.50
2017-06-09T19:28:06.450Z,19.10
2017-06-09T19:30:33.909Z,19.00
2017-06-09T19:33:01.374Z,19.00
2017-06-09T19:35:28.842Z,18.90
2017-06-09T19:37:56.306Z,18.80
2017-06-09T19:40:23.825Z,18.70
2017-06-09T19:42:51.434Z,18.60
2017-06-09T19:45:19.039Z,18.50
2017-06-09T19:47:46.529Z,18.50
2017-06-09T19:50:13.985Z,18.40
2017-06-09T19:52:41.552Z,18.50
2017-06-09T19:55:09.015Z,18.70
2017-06-09T19:57:37.256Z,18.60
2017-06-09T20:00:05.823Z,18.50
2017-06-09T20:02:33.414Z,18.60
2017-06-09T20:05:00.906Z,18.60
2017-06-09T20:07:28.406Z,18.40
2017-06-09T20:09:55.870Z,18.20
2017-06-09T20:12:23.357Z,17.90
2017-06-09T20:14:51.618Z,17.80
2017-06-09T20:17:19.073Z,17.70
2017-06-09T20:19:46.548Z,17.80
2017-06-09T20:22:14.814Z,17.70
2017-06-09T20:24:42.473Z,17.60
2017-06-09T20:27:09.938Z,17.60
2017-06-09T20:29:37.406Z,17.60
2017-06-09T20:32:05.662Z,17.60
2017-06-09T20:34:33.138Z,17.50
2017-06-09T20:37:01.365Z,17.60
2017-06-09T20:39:28.833Z,17.50
2017-06-09T20:41:56.298Z,17.60
2017-06-09T20:44:23.769Z,17.60
2017-06-09T20:46:52.006Z,17.50
2017-06-09T20:49:19.502Z,17.40
2017-06-09T20:51:47.730Z,17.30
2017-06-09T20:54:15.204Z,17.30
2017-06-09T20:56:42.657Z,17.30
2017-06-09T20:59:10.139Z,17.30
2017-06-09T21:01:37.604Z,17.20
2017-06-09T21:04:05.879Z,17.30
2017-06-09T21:06:33.426Z,17.20
2017-06-09T21:09:00.899Z,17.30
2017-06-09T21:11:29.167Z,17.30
2017-06-09T21:13:57.415Z,17.40
2017-06-09T21:16:24.990Z,17.40
2017-06-09T21:18:52.462Z,17.40
2017-06-09T21:21:20.697Z,17.50
2017-06-09T21:23:48.171Z,17.40
2017-06-09T21:26:15.751Z,17.50
2017-06-09T21:28:44.019Z,17.40
2017-06-09T21:31:12.263Z,17.50
2017-06-09T21:33:39.745Z,17.40
2017-06-09T21:36:07.308Z,17.50
2017-06-09T21:38:34.862Z,17.40
2017-06-09T21:41:02.428Z,17.50
2017-06-09T21:43:30.662Z,17.50
2017-06-09T21:45:58.155Z,17.50
2017-06-09T21:48:25.714Z,17.60
2017-06-09T21:50:53.269Z,17.70
2017-06-09T21:53:20.839Z,17.80
2017-06-09T21:55:49.066Z,17.80
2017-06-09T21:58:16.571Z,17.80
2017-06-09T22:00:44.039Z,17.80
2017-06-09T22:03:12.299Z,17.60
2017-06-09T22:05:39.765Z,17.60
2017-06-09T22:08:07.225Z,17.70
2017-06-09T22:10:35.465Z,17.90
2017-06-09T22:13:02.938Z,17.80
2017-06-09T22:15:30.403Z,17.90
2017-06-09T22:17:57.870Z,17.80
2017-06-09T22:20:26.126Z,17.60
2017-06-09T22:22:53.603Z,17.60
2017-06-09T22:25:21.838Z,17.60
2017-06-09T22:27:49.327Z,17.60
2017-06-09T22:30:17.564Z,17.50
2017-06-09T22:32:45.031Z,17.50
2017-06-09T22:35:12.504Z,17.60
2017-06-09T22:37:39.976Z,17.70
2017-06-09T22:40:08.215Z,17.90
2017-06-09T22:42:35.683Z,17.80
2017-06-09T22:45:03.159Z,17.80
2017-06-09T22:47:31.385Z,17.80
2017-06-09T22:49:58.850Z,17.70
2017-06-09T22:52:26.315Z,17.80
2017-06-09T22:54:53.777Z,17.90
2017-06-09T22:57:21.249Z,17.90
2017-06-09T22:59:48.736Z,17.90
2017-06-09T23:02:16.237Z,17.90
2017-06-09T23:04:43.701Z,17.90
2017-06-09T23:07:11.175Z,17.90
2017-06-09T23:09:38.667Z,17.90
2017-06-09T23:12:06.195Z,17.70
2017-06-09T23:14:33.658Z,17.70
2017-06-09T23:17:01.898Z,17.60
2017-06-09T23:19:29.364Z,17.60
2017-06-09T23:21:56.834Z,17.60
2017-06-09T23:24:29.920Z,17.60
2017-06-09T23:27:03.162Z,17.60
2017-06-09T23:29:30.622Z,17.70
2017-06-09T23:31:58.101Z,17.70
2017-06-09T23:34:25.573Z,17.80
2017-06-09T23:36:53.041Z,17.90
2017-06-09T23:39:20.513Z,17.90
2017-06-09T23:41:48.754Z,17.90
2017-06-09T23:44:16.218Z,17.80
2017-06-09T23:46:43.686Z,17.90
2017-06-09T23:49:11.145Z,17.80
2017-06-09T23:51:38.610Z,17.80
2017-06-09T23:54:06.846Z,17.80
2017-06-09T23:56:34.332Z,17.80
2017-06-09T23:59:01.790Z,17.90
